createdAt,value
2018-08-06T00:00:23.691Z,20.10
2018-08-06T00:02:52.042Z,19.80
2018-08-06T00:05:20.482Z,20.00
2018-08-06T00:07:48.890Z,20.30
2018-08-06T00:10:18.708Z,19.90
2018-08-06T00:12:47.100Z,19.80
2018-08-06T00:15:15.994Z,19.80
2018-08-06T00:17:44.464Z,19.90
2018-08-06T00:20:13.759Z,20.10
2018-08-06T00:22:42.455Z,20.40
2018-08-06T00:25:12.047Z,19.90
2018-08-06T00:27:40.946Z,20.30
2018-08-06T00:30:12.891Z,20.10
2018-08-06T00:32:42.231Z,20.10
2018-08-06T00:35:11.101Z,20.40
2018-08-06T00:37:39.705Z,20.10
2018-08-06T00:40:11.971Z,20.10
2018-08-06T00:42:40.857Z,19.90
2018-08-06T00:45:11.071Z,20.00
2018-08-06T00:47:39.482Z,19.80
2018-08-06T00:50:08.403Z,20.00
2018-08-06T00:52:37.069Z,19.90
2018-08-06T00:55:07.007Z,19.80
2018-08-06T00:57:35.383Z,20.00
2018-08-06T01:00:04.901Z,19.90
2018-08-06T01:02:33.311Z,19.70
2018-08-06T01:05:01.762Z,19.60
2018-08-06T01:07:30.128Z,19.60
2018-08-06T01:09:58.517Z,20.10
2018-08-06T01:12:27.001Z,19.80
2018-08-06T01:14:55.408Z,19.70
2018-08-06T01:17:23.804Z,19.70
2018-08-06T01:19:52.191Z,19.30
2018-08-06T01:22:20.592Z,19.70
2018-08-06T01:24:48.976Z,19.50
2018-08-06T01:27:17.382Z,19.50
2018-08-06T01:29:45.790Z,19.60
2018-08-06T01:32:14.185Z,19.70
2018-08-06T01:34:42.526Z,19.50
2018-08-06T01:37:10.894Z,19.20
2018-08-06T01:39:39.284Z,19.50
2018-08-06T01:42:07.662Z,19.30
2018-08-06T01:44:36.044Z,19.40
2018-08-06T01:47:04.415Z,19.50
2018-08-06T01:49:32.807Z,19.00
2018-08-06T01:52:01.180Z,19.40
2018-08-06T01:54:29.545Z,19.60
2018-08-06T01:56:57.916Z,19.40
2018-08-06T01:59:26.266Z,19.30
2018-08-06T02:01:54.636Z,19.30
2018-08-06T02:04:23.026Z,19.00
2018-08-06T02:06:51.404Z,18.90
2018-08-06T02:09:19.747Z,18.80
2018-08-06T02:11:48.164Z,18.80
2018-08-06T02:14:16.519Z,19.10
2018-08-06T02:16:44.915Z,19.40
2018-08-06T02:19:13.290Z,19.30
2018-08-06T02:21:41.669Z,19.50
2018-08-06T02:24:10.079Z,19.40
2018-08-06T02:26:38.479Z,19.40
2018-08-06T02:29:06.825Z,19.40
2018-08-06T02:31:35.236Z,19.00
2018-08-06T02:34:03.578Z,19.50
2018-08-06T02:36:32.011Z,19.40
2018-08-06T02:39:00.329Z,19.60
2018-08-06T02:41:28.719Z,19.20
2018-08-06T02:43:57.091Z,19.10
2018-08-06T02:46:25.467Z,19.50
2018-08-06T02:48:53.859Z,19.20
2018-08-06T02:51:22.339Z,19.20
2018-08-06T02:53:50.770Z,18.80
2018-08-06T02:56:19.181Z,18.80
2018-08-06T03:01:15.676Z,18.50
2018-08-06T03:03:44.060Z,18.80
2018-08-06T03:06:12.451Z,19.00
2018-08-06T03:08:40.895Z,19.10
2018-08-06T03:11:09.304Z,18.70
2018-08-06T03:13:37.680Z,18.90
2018-08-06T03:16:06.516Z,19.30
2018-08-06T03:18:34.925Z,18.90
2018-08-06T03:21:03.350Z,18.80
2018-08-06T03:23:31.802Z,19.20
2018-08-06T03:26:00.152Z,18.80
2018-08-06T03:28:28.520Z,18.40
2018-08-06T03:30:56.908Z,17.50
2018-08-06T03:33:25.304Z,17.40
2018-08-06T03:35:53.736Z,17.20
2018-08-06T03:38:22.146Z,17.40
2018-08-06T03:40:50.504Z,17.80
2018-08-06T03:43:18.870Z,17.60
2018-08-06T03:45:47.240Z,18.00
2018-08-06T03:48:15.663Z,18.60
2018-08-06T03:50:44.112Z,18.40
2018-08-06T03:53:12.526Z,18.60
2018-08-06T03:58:08.975Z,18.70
2018-08-06T04:03:05.430Z,18.90
2018-08-06T04:05:33.775Z,18.60
2018-08-06T04:08:02.160Z,18.80
2018-08-06T04:10:30.558Z,19.50
2018-08-06T04:15:26.933Z,19.30
2018-08-06T04:17:55.327Z,19.30
2018-08-06T04:20:23.695Z,19.60
2018-08-06T04:22:52.039Z,19.70
2018-08-06T04:25:20.411Z,19.60
2018-08-06T04:27:48.815Z,20.10
2018-08-06T04:30:17.202Z,20.30
2018-08-06T04:32:46.465Z,20.50
2018-08-06T04:35:15.322Z,20.40
2018-08-06T04:37:44.532Z,20.40
2018-08-06T04:40:13.420Z,20.40
2018-08-06T04:42:42.427Z,20.90
2018-08-06T04:45:11.456Z,21.00
2018-08-06T04:47:40.708Z,21.70
2018-08-06T04:50:10.719Z,21.90
2018-08-06T04:52:39.189Z,21.70
2018-08-06T04:55:10.237Z,22.40
2018-08-06T04:57:38.620Z,22.30
2018-08-06T05:00:09.242Z,22.10
2018-08-06T05:02:37.660Z,22.10
2018-08-06T05:05:06.844Z,22.80
2018-08-06T05:07:36.008Z,22.70
2018-08-06T05:10:05.012Z,22.60
2018-08-06T05:12:33.868Z,23.20
2018-08-06T05:15:02.661Z,22.20
2018-08-06T05:17:31.610Z,22.50
2018-08-06T05:20:00.479Z,23.00
2018-08-06T05:22:29.420Z,23.20
2018-08-06T05:24:58.378Z,23.10
2018-08-06T05:27:27.298Z,23.60
2018-08-06T05:29:56.164Z,23.70
2018-08-06T05:32:25.248Z,24.00
2018-08-06T05:34:54.278Z,24.10
2018-08-06T05:37:23.259Z,24.70
2018-08-06T05:39:52.479Z,24.50
2018-08-06T05:42:21.339Z,24.20
2018-08-06T05:44:50.296Z,23.40
2018-08-06T05:47:19.185Z,23.80
2018-08-06T05:49:48.851Z,24.30
2018-08-06T05:52:17.606Z,24.70
2018-08-06T05:54:46.569Z,24.90
2018-08-06T05:57:15.437Z,25.10
2018-08-06T05:59:44.444Z,25.20
2018-08-06T06:02:12.941Z,25.00
2018-08-06T06:04:41.330Z,24.10
2018-08-06T06:07:09.746Z,24.30
2018-08-06T06:09:38.091Z,24.70
2018-08-06T06:12:06.544Z,24.40
2018-08-06T06:14:34.931Z,25.20
2018-08-06T06:17:03.319Z,25.70
2018-08-06T06:19:31.737Z,25.90
2018-08-06T06:24:28.275Z,25.50
2018-08-06T06:26:56.765Z,25.60
2018-08-06T06:29:25.208Z,26.00
2018-08-06T06:31:53.600Z,26.60
2018-08-06T06:34:22.021Z,26.10
2018-08-06T06:39:18.540Z,26.10
2018-08-06T06:41:46.978Z,25.80
2018-08-06T06:44:15.426Z,26.50
2018-08-06T06:46:43.836Z,26.90
2018-08-06T06:49:12.372Z,27.00
2018-08-06T06:51:40.849Z,27.90
2018-08-06T06:54:09.500Z,27.30
2018-08-06T06:56:37.964Z,27.80
2018-08-06T06:59:06.382Z,27.90
2018-08-06T07:01:34.807Z,27.50
2018-08-06T07:08:59.402Z,29.20
2018-08-06T07:11:27.811Z,29.00
2018-08-06T07:13:56.381Z,29.30
2018-08-06T07:16:24.678Z,29.70
2018-08-06T07:18:53.076Z,29.40
2018-08-06T07:21:21.534Z,29.60
2018-08-06T07:26:18.059Z,29.10
2018-08-06T07:28:46.575Z,28.90
2018-08-06T07:31:14.998Z,28.90
2018-08-06T07:33:43.426Z,28.70
2018-08-06T07:36:11.780Z,29.40
2018-08-06T07:38:40.242Z,29.90
2018-08-06T07:41:08.684Z,29.20
2018-08-06T07:43:37.143Z,28.80
2018-08-06T07:46:05.674Z,29.00
2018-08-06T07:48:34.124Z,29.10
2018-08-06T07:51:02.590Z,29.50
2018-08-06T07:53:31.045Z,30.30
2018-08-06T07:55:59.448Z,30.50
2018-08-06T08:00:56.029Z,29.10
2018-08-06T08:03:24.496Z,30.20
2018-08-06T08:05:52.943Z,30.50
2018-08-06T08:08:21.445Z,28.20
2018-08-06T08:10:49.908Z,30.90
2018-08-06T08:13:18.387Z,31.60
2018-08-06T08:15:46.843Z,29.40
2018-08-06T08:18:15.245Z,30.10
2018-08-06T08:20:43.689Z,29.90
2018-08-06T08:23:12.145Z,29.50
2018-08-06T08:25:40.591Z,31.00
2018-08-06T08:28:09.090Z,31.00
2018-08-06T08:30:37.539Z,33.10
2018-08-06T08:33:07.113Z,31.60
2018-08-06T08:35:35.535Z,29.90
2018-08-06T08:38:03.985Z,29.20
2018-08-06T08:40:32.483Z,30.80
2018-08-06T08:43:00.899Z,31.20
2018-08-06T08:45:29.384Z,32.70
2018-08-06T08:47:57.823Z,32.40
2018-08-06T08:50:26.300Z,32.90
2018-08-06T08:52:54.787Z,31.20
2018-08-06T08:55:23.293Z,30.00
2018-08-06T08:57:51.760Z,30.30
2018-08-06T09:00:21.888Z,30.30
2018-08-06T09:02:51.144Z,30.30
2018-08-06T09:05:19.956Z,30.70
2018-08-06T09:07:48.893Z,29.90
2018-08-06T09:12:46.395Z,30.20
2018-08-06T09:15:17.180Z,31.60
2018-08-06T09:17:45.644Z,30.80
2018-08-06T09:20:14.154Z,29.80
2018-08-06T09:25:12.284Z,32.90
2018-08-06T09:27:42.144Z,33.10
2018-08-06T09:30:13.953Z,33.00
2018-08-06T09:32:43.853Z,32.70
2018-08-06T09:35:12.911Z,31.90
2018-08-06T09:37:41.697Z,33.90
2018-08-06T09:40:13.178Z,31.70
2018-08-06T09:42:42.474Z,31.70
2018-08-06T09:47:42.061Z,33.40
2018-08-06T09:50:11.471Z,33.20
2018-08-06T09:52:40.489Z,33.40
2018-08-06T09:55:11.887Z,33.50
2018-08-06T09:57:40.631Z,34.70
2018-08-06T10:00:18.303Z,33.60
2018-08-06T10:02:47.299Z,35.10
2018-08-06T10:05:15.829Z,35.80
2018-08-06T10:07:44.524Z,32.80
2018-08-06T10:10:13.773Z,33.00
2018-08-06T10:12:43.088Z,31.50
2018-08-06T10:15:12.053Z,32.70
2018-08-06T10:17:40.858Z,32.50
2018-08-06T10:20:11.312Z,31.70
2018-08-06T10:22:39.762Z,32.20
2018-08-06T10:25:09.884Z,29.60
2018-08-06T10:27:39.105Z,29.30
2018-08-06T10:32:36.671Z,29.20
2018-08-06T10:35:05.914Z,30.40
2018-08-06T10:37:34.634Z,32.00
2018-08-06T10:40:03.054Z,32.60
2018-08-06T10:42:31.452Z,34.00
2018-08-06T10:44:59.835Z,33.90
2018-08-06T10:47:28.188Z,33.20
2018-08-06T10:49:56.530Z,32.20
2018-08-06T10:52:24.896Z,30.70
2018-08-06T10:54:53.319Z,29.90
2018-08-06T10:57:21.706Z,30.00
2018-08-06T10:59:50.066Z,30.50
2018-08-06T11:02:18.468Z,31.40
2018-08-06T11:04:46.850Z,32.40
2018-08-06T11:07:15.253Z,33.40
2018-08-06T11:09:43.662Z,32.30
2018-08-06T11:12:12.103Z,33.30
2018-08-06T11:14:41.274Z,33.70
2018-08-06T11:17:09.662Z,33.80
2018-08-06T11:19:38.042Z,31.40
2018-08-06T11:22:07.050Z,30.20
2018-08-06T11:24:35.424Z,32.30
2018-08-06T11:27:03.808Z,31.80
2018-08-06T11:29:32.203Z,32.20
2018-08-06T11:32:00.635Z,31.70
2018-08-06T11:39:25.120Z,32.10
2018-08-06T11:41:53.517Z,32.00
2018-08-06T11:44:21.899Z,30.90
2018-08-06T11:46:50.276Z,31.50
2018-08-06T11:49:18.643Z,31.40
2018-08-06T11:51:47.081Z,31.10
2018-08-06T11:54:15.493Z,30.70
2018-08-06T11:56:44.039Z,32.00
2018-08-06T11:59:12.319Z,33.20
2018-08-06T12:01:40.728Z,32.60
2018-08-06T12:04:09.147Z,32.80
2018-08-06T12:06:37.577Z,32.80
2018-08-06T12:09:08.203Z,32.60
2018-08-06T12:11:36.932Z,33.20
2018-08-06T12:14:05.387Z,32.80
2018-08-06T12:16:33.847Z,31.80
2018-08-06T12:19:02.368Z,32.20
2018-08-06T12:21:30.803Z,32.70
2018-08-06T12:23:59.235Z,33.30
2018-08-06T12:26:27.662Z,31.40
2018-08-06T12:28:56.045Z,31.80
2018-08-06T12:31:24.588Z,30.80
2018-08-06T12:33:52.972Z,31.20
2018-08-06T12:36:21.412Z,31.90
2018-08-06T12:39:21.541Z,32.30
2018-08-06T12:41:49.972Z,31.10
2018-08-06T12:44:18.419Z,31.20
2018-08-06T12:46:46.864Z,30.80
2018-08-06T12:49:15.303Z,32.40
2018-08-06T12:51:43.765Z,31.70
2018-08-06T12:54:12.131Z,32.00
2018-08-06T12:56:40.649Z,32.00
2018-08-06T12:59:09.105Z,30.40
2018-08-06T13:01:38.202Z,30.20
2018-08-06T13:04:06.876Z,30.00
2018-08-06T13:06:35.436Z,30.80
2018-08-06T13:09:06.271Z,31.60
2018-08-06T13:11:34.770Z,31.00
2018-08-06T13:14:03.418Z,30.60
2018-08-06T13:16:31.977Z,32.40
2018-08-06T13:19:00.544Z,32.90
2018-08-06T13:23:57.761Z,31.50
2018-08-06T13:26:26.248Z,31.20
2018-08-06T13:28:54.820Z,32.10
2018-08-06T13:31:23.379Z,32.20
2018-08-06T13:33:52.360Z,32.10
2018-08-06T13:38:49.148Z,32.60
2018-08-06T13:41:17.896Z,31.70
2018-08-06T13:43:46.436Z,30.20
2018-08-06T13:46:14.937Z,30.90
2018-08-06T13:48:43.472Z,31.00
2018-08-06T13:51:12.084Z,31.20
2018-08-06T13:53:40.655Z,31.30
2018-08-06T13:56:09.493Z,31.10
2018-08-06T13:58:37.996Z,31.20
2018-08-06T14:01:06.585Z,31.40
2018-08-06T14:03:35.127Z,30.80
2018-08-06T14:06:03.634Z,30.70
2018-08-06T14:08:32.219Z,31.10
2018-08-06T14:11:00.763Z,30.40
2018-08-06T14:13:29.309Z,30.20
2018-08-06T14:15:57.791Z,30.20
2018-08-06T14:18:26.623Z,30.90
2018-08-06T14:20:55.153Z,30.80
2018-08-06T14:23:23.697Z,30.60
2018-08-06T14:25:52.586Z,30.90
2018-08-06T14:28:21.074Z,31.00
2018-08-06T14:30:49.641Z,31.00
2018-08-06T14:33:18.192Z,31.30
2018-08-06T14:35:46.710Z,31.10
2018-08-06T14:38:15.216Z,30.70
2018-08-06T14:40:43.770Z,30.90
2018-08-06T14:43:12.306Z,31.00
2018-08-06T14:45:40.876Z,31.10
2018-08-06T14:50:37.541Z,30.80
2018-08-06T14:53:06.043Z,30.50
2018-08-06T14:55:34.549Z,30.80
2018-08-06T14:58:03.103Z,31.10
2018-08-06T15:00:32.219Z,30.50
2018-08-06T15:03:00.792Z,30.40
2018-08-06T15:05:29.234Z,30.40
2018-08-06T15:07:57.728Z,30.40
2018-08-06T15:10:26.270Z,30.70
2018-08-06T15:12:54.972Z,30.70
2018-08-06T15:15:23.602Z,30.80
2018-08-06T15:17:52.161Z,30.50
2018-08-06T15:20:20.643Z,30.20
2018-08-06T15:25:19.127Z,30.00
2018-08-06T15:27:47.691Z,30.00
2018-08-06T15:30:16.216Z,30.10
2018-08-06T15:32:44.698Z,30.10
2018-08-06T15:35:13.782Z,30.10
2018-08-06T15:37:43.152Z,30.10
2018-08-06T15:40:20.211Z,30.00
2018-08-06T15:42:48.832Z,29.90
2018-08-06T15:45:17.290Z,30.00
2018-08-06T15:47:46.294Z,30.00
2018-08-06T15:50:18.632Z,29.90
2018-08-06T15:52:47.481Z,29.80
2018-08-06T15:55:15.985Z,29.90
2018-08-06T15:57:44.744Z,29.80
2018-08-06T16:02:43.473Z,30.10
2018-08-06T16:05:11.984Z,30.30
2018-08-06T16:07:40.547Z,30.10
2018-08-06T16:10:10.647Z,30.10
2018-08-06T16:15:09.414Z,30.10
2018-08-06T16:17:38.665Z,29.50
2018-08-06T16:20:09.199Z,29.40
2018-08-06T16:22:37.784Z,29.50
2018-08-06T16:25:06.804Z,29.30
2018-08-06T16:27:35.388Z,29.10
2018-08-06T16:30:05.313Z,29.20
2018-08-06T16:32:33.863Z,29.10
2018-08-06T16:35:02.440Z,28.90
2018-08-06T16:37:30.956Z,29.00
2018-08-06T16:39:59.562Z,29.00
2018-08-06T16:42:28.088Z,29.10
2018-08-06T16:44:56.676Z,29.10
2018-08-06T16:47:25.247Z,29.10
2018-08-06T16:49:53.782Z,29.10
2018-08-06T16:52:22.413Z,29.30
2018-08-06T16:54:51.912Z,29.20
2018-08-06T16:59:49.620Z,29.10
2018-08-06T17:02:18.267Z,29.00
2018-08-06T17:07:15.648Z,28.90
2018-08-06T17:12:12.605Z,28.90
2018-08-06T17:14:41.154Z,28.90
2018-08-06T17:17:09.660Z,28.90
2018-08-06T17:19:38.226Z,28.90
2018-08-06T17:22:06.807Z,28.90
2018-08-06T17:24:35.262Z,28.80
2018-08-06T17:27:03.822Z,28.90
2018-08-06T17:29:32.306Z,28.80
2018-08-06T17:32:00.858Z,28.70
2018-08-06T17:34:29.366Z,28.70
2018-08-06T17:36:57.896Z,28.60
2018-08-06T17:39:26.444Z,28.50
2018-08-06T17:41:54.924Z,28.60
2018-08-06T17:44:23.467Z,28.60
2018-08-06T17:49:20.097Z,28.50
2018-08-06T17:51:48.612Z,28.40
2018-08-06T17:56:45.200Z,28.30
2018-08-06T17:59:13.725Z,28.30
2018-08-06T18:01:42.216Z,28.30
2018-08-06T18:04:10.789Z,28.20
2018-08-06T18:06:39.360Z,28.20
2018-08-06T18:09:10.629Z,28.20
2018-08-06T18:11:39.135Z,28.10
2018-08-06T18:14:07.656Z,28.10
2018-08-06T18:16:36.219Z,28.10
2018-08-06T18:19:04.833Z,28.00
2018-08-06T18:21:33.323Z,27.90
2018-08-06T18:24:01.867Z,27.80
2018-08-06T18:26:30.392Z,27.80
2018-08-06T18:28:58.837Z,27.80
2018-08-06T18:31:27.462Z,27.60
2018-08-06T18:33:57.013Z,27.50
2018-08-06T18:36:25.455Z,27.50
2018-08-06T18:38:53.960Z,27.40
2018-08-06T18:43:52.965Z,27.20
2018-08-06T18:46:21.496Z,27.10
2018-08-06T18:48:49.992Z,27.00
2018-08-06T18:51:18.488Z,27.00
2018-08-06T18:53:46.957Z,26.90
2018-08-06T18:56:15.487Z,26.90
2018-08-06T18:58:43.993Z,26.70
2018-08-06T19:01:12.488Z,26.70
2018-08-06T19:03:40.982Z,26.60
2018-08-06T19:06:10.073Z,26.50
2018-08-06T19:09:00.470Z,26.50
2018-08-06T19:11:29.040Z,26.40
2018-08-06T19:14:02.935Z,26.40
2018-08-06T19:16:31.808Z,26.30
2018-08-06T19:19:05.605Z,26.20
2018-08-06T19:21:34.853Z,26.20
2018-08-06T19:24:08.751Z,26.20
2018-08-06T19:26:37.283Z,26.00
2018-08-06T19:29:05.807Z,26.00
2018-08-06T19:31:34.417Z,26.00
2018-08-06T19:34:02.899Z,25.90
2018-08-06T19:36:35.740Z,25.90
2018-08-06T19:39:06.270Z,25.70
2018-08-06T19:41:37.970Z,25.70
2018-08-06T19:44:06.691Z,25.60
2018-08-06T19:46:35.382Z,25.60
2018-08-06T19:49:09.294Z,25.60
2018-08-06T19:51:41.988Z,25.60
2018-08-06T19:54:11.690Z,25.50
2018-08-06T19:59:09.766Z,25.40
2018-08-06T20:01:39.435Z,25.30
2018-08-06T20:04:08.717Z,25.40
2018-08-06T20:06:37.491Z,25.20
2018-08-06T20:09:11.171Z,25.30
2018-08-06T20:11:40.163Z,25.30
2018-08-06T20:16:38.188Z,25.20
2018-08-06T20:19:07.261Z,25.10
2018-08-06T20:21:36.241Z,25.00
2018-08-06T20:24:04.920Z,24.90
2018-08-06T20:26:34.167Z,24.90
2018-08-06T20:29:04.717Z,24.90
2018-08-06T20:31:33.409Z,24.90
2018-08-06T20:34:02.393Z,24.80
2018-08-06T20:36:31.300Z,24.80
2018-08-06T20:41:29.131Z,24.70
2018-08-06T20:43:57.775Z,24.60
2018-08-06T20:46:26.549Z,24.60
2018-08-06T20:48:55.136Z,24.60
2018-08-06T20:51:23.756Z,24.50
2018-08-06T20:53:52.769Z,24.50
2018-08-06T20:56:21.708Z,24.60
2018-08-06T20:58:55.892Z,24.60
2018-08-06T21:01:24.638Z,24.40
2018-08-06T21:03:54.469Z,24.40
2018-08-06T21:06:23.887Z,24.40
2018-08-06T21:08:53.577Z,24.40
2018-08-06T21:11:22.587Z,24.40
2018-08-06T21:13:52.050Z,24.40
2018-08-06T21:16:26.665Z,24.30
2018-08-06T21:18:55.599Z,24.30
2018-08-06T21:21:24.812Z,24.30
2018-08-06T21:23:53.542Z,24.20
2018-08-06T21:26:22.126Z,24.20
2018-08-06T21:28:51.658Z,24.20
2018-08-06T21:31:32.267Z,24.00
2018-08-06T21:34:01.888Z,24.20
2018-08-06T21:36:30.371Z,24.00
2018-08-06T21:38:59.266Z,23.90
2018-08-06T21:41:27.850Z,23.70
2018-08-06T21:43:56.869Z,24.00
2018-08-06T21:46:25.703Z,23.70
2018-08-06T21:48:54.799Z,23.70
2018-08-06T21:51:24.449Z,23.60
2018-08-06T21:53:54.730Z,23.60
2018-08-06T21:56:23.619Z,23.50
2018-08-06T21:58:52.948Z,23.40
2018-08-06T22:01:21.977Z,23.30
2018-08-06T22:04:02.698Z,23.20
2018-08-06T22:06:36.680Z,23.30
2018-08-06T22:09:11.378Z,23.50
2018-08-06T22:11:40.613Z,23.40
2018-08-06T22:14:14.723Z,23.20
2018-08-06T22:16:54.279Z,23.10
2018-08-06T22:19:24.513Z,23.00
2018-08-06T22:21:56.869Z,23.10
2018-08-06T22:24:26.299Z,23.00
2018-08-06T22:26:55.128Z,22.90
2018-08-06T22:31:59.229Z,23.00
2018-08-06T22:38:25.193Z,22.60
2018-08-06T22:40:55.559Z,22.80
2018-08-06T22:43:24.398Z,22.70
2018-08-06T22:45:53.132Z,22.90
2018-08-06T22:48:43.362Z,22.80
2018-08-06T22:59:01.218Z,22.70
2018-08-06T23:01:31.869Z,22.40
2018-08-06T23:04:02.806Z,22.50
2018-08-06T23:06:37.402Z,22.40
2018-08-06T23:09:11.019Z,22.30
2018-08-06T23:11:49.669Z,22.40
2018-08-06T23:14:18.654Z,22.40
2018-08-06T23:16:51.572Z,22.40
2018-08-06T23:21:49.764Z,22.20
2018-08-06T23:24:19.216Z,22.20
2018-08-06T23:26:48.118Z,22.20
2018-08-06T23:29:17.130Z,21.90
2018-08-06T23:32:17.632Z,21.90
2018-08-06T23:34:52.062Z,22.00
2018-08-06T23:37:24.168Z,21.80
2018-08-06T23:39:53.239Z,21.80
2018-08-06T23:42:26.500Z,21.90
2018-08-06T23:44:56.312Z,21.80
2018-08-06T23:47:27.736Z,21.80
2018-08-06T23:50:23.962Z,21.80
2018-08-06T23:55:46.316Z,21.70
2018-08-06T23:58:18.940Z,21.60
